sensor_id;sensor_type;location;lat;lon;timestamp;P1;durP1;ratioP1;P2;durP2;ratioP2
30872;SDS011;17579;42.690;2.586;2023-06-01T00:02:15;5.18;;;3.13;;
30872;SDS011;17579;42.690;2.586;2023-06-01T00:04:49;5.32;;;3.35;;
30872;SDS011;17579;42.690;2.586;2023-06-01T00:07:16;4.55;;;3.47;;
30872;SDS011;17579;42.690;2.586;2023-06-01T00:09:48;4.43;;;3.40;;
30872;SDS011;17579;42.690;2.586;2023-06-01T00:12:14;4.18;;;3.53;;
30872;SDS011;17579;42.690;2.586;2023-06-01T00:14:45;4.35;;;3.47;;
30872;SDS011;17579;42.690;2.586;2023-06-01T00:17:20;5.20;;;4.05;;
30872;SDS011;17579;42.690;2.586;2023-06-01T00:25:42;9.57;;;4.10;;
30872;SDS011;17579;42.690;2.586;2023-06-01T00:28:10;9.00;;;4.78;;
30872;SDS011;17579;42.690;2.586;2023-06-01T00:30:39;4.30;;;3.58;;
30872;SDS011;17579;42.690;2.586;2023-06-01T00:33:07;8.02;;;4.25;;
30872;SDS011;17579;42.690;2.586;2023-06-01T00:35:33;6.32;;;3.88;;
30872;SDS011;17579;42.690;2.586;2023-06-01T00:37:59;4.82;;;4.07;;
30872;SDS011;17579;42.690;2.586;2023-06-01T00:40:34;6.03;;;4.57;;
30872;SDS011;17579;42.690;2.586;2023-06-01T00:43:00;7.93;;;4.35;;
30872;SDS011;17579;42.690;2.586;2023-06-01T00:45:28;6.68;;;4.50;;
30872;SDS011;17579;42.690;2.586;2023-06-01T00:47:54;10.38;;;4.53;;
30872;SDS011;17579;42.690;2.586;2023-06-01T00:50:33;5.40;;;3.72;;
30872;SDS011;17579;42.690;2.586;2023-06-01T00:53:05;7.07;;;4.40;;
30872;SDS011;17579;42.690;2.586;2023-06-01T00:55:33;4.60;;;4.18;;
30872;SDS011;17579;42.690;2.586;2023-06-01T00:58:13;7.18;;;4.30;;
30872;SDS011;17579;42.690;2.586;2023-06-01T01:00:44;6.72;;;4.38;;
30872;SDS011;17579;42.690;2.586;2023-06-01T01:03:14;8.05;;;4.60;;
30872;SDS011;17579;42.690;2.586;2023-06-01T01:06:01;7.93;;;4.30;;
30872;SDS011;17579;42.690;2.586;2023-06-01T01:08:41;5.20;;;4.15;;
30872;SDS011;17579;42.690;2.586;2023-06-01T01:11:23;7.07;;;3.50;;
30872;SDS011;17579;42.690;2.586;2023-06-01T01:16:30;6.97;;;4.35;;
30872;SDS011;17579;42.690;2.586;2023-06-01T01:21:46;4.43;;;3.53;;
30872;SDS011;17579;42.690;2.586;2023-06-01T01:24:35;6.32;;;4.13;;
30872;SDS011;17579;42.690;2.586;2023-06-01T01:27:33;6.95;;;4.05;;
30872;SDS011;17579;42.690;2.586;2023-06-01T01:30:18;7.55;;;4.47;;
30872;SDS011;17579;42.690;2.586;2023-06-01T01:32:53;5.00;;;4.40;;
30872;SDS011;17579;42.690;2.586;2023-06-01T01:35:25;7.60;;;4.80;;
30872;SDS011;17579;42.690;2.586;2023-06-01T01:40:48;6.78;;;4.15;;
30872;SDS011;17579;42.690;2.586;2023-06-01T01:43:17;8.20;;;4.35;;
30872;SDS011;17579;42.690;2.586;2023-06-01T01:45:45;6.85;;;4.43;;
30872;SDS011;17579;42.690;2.586;2023-06-01T01:48:22;5.75;;;4.53;;
30872;SDS011;17579;42.690;2.586;2023-06-01T01:51:01;6.75;;;4.38;;
30872;SDS011;17579;42.690;2.586;2023-06-01T01:53:36;6.95;;;4.47;;
30872;SDS011;17579;42.690;2.586;2023-06-01T01:58:56;5.47;;;4.63;;
30872;SDS011;17579;42.690;2.586;2023-06-01T02:01:22;8.00;;;4.63;;
30872;SDS011;17579;42.690;2.586;2023-06-01T02:03:57;5.55;;;4.70;;
30872;SDS011;17579;42.690;2.586;2023-06-01T02:06:38;8.38;;;5.05;;
30872;SDS011;17579;42.690;2.586;2023-06-01T02:09:07;5.22;;;4.22;;
30872;SDS011;17579;42.690;2.586;2023-06-01T02:11:36;7.82;;;4.70;;
30872;SDS011;17579;42.690;2.586;2023-06-01T02:14:04;5.10;;;4.18;;
30872;SDS011;17579;42.690;2.586;2023-06-01T02:16:37;6.32;;;4.75;;
30872;SDS011;17579;42.690;2.586;2023-06-01T02:19:10;4.88;;;4.32;;
30872;SDS011;17579;42.690;2.586;2023-06-01T02:21:38;9.20;;;4.93;;
30872;SDS011;17579;42.690;2.586;2023-06-01T02:24:06;5.80;;;4.78;;
30872;SDS011;17579;42.690;2.586;2023-06-01T02:26:35;6.18;;;4.72;;
30872;SDS011;17579;42.690;2.586;2023-06-01T02:29:14;5.07;;;4.57;;
30872;SDS011;17579;42.690;2.586;2023-06-01T02:31:59;10.07;;;4.22;;
30872;SDS011;17579;42.690;2.586;2023-06-01T02:34:35;7.43;;;4.97;;
30872;SDS011;17579;42.690;2.586;2023-06-01T02:37:04;5.15;;;4.35;;
30872;SDS011;17579;42.690;2.586;2023-06-01T02:39:29;7.55;;;4.72;;
30872;SDS011;17579;42.690;2.586;2023-06-01T02:41:55;5.68;;;4.53;;
30872;SDS011;17579;42.690;2.586;2023-06-01T02:44:27;5.45;;;4.65;;
30872;SDS011;17579;42.690;2.586;2023-06-01T02:46:54;6.47;;;4.80;;
30872;SDS011;17579;42.690;2.586;2023-06-01T02:49:20;6.85;;;4.88;;
30872;SDS011;17579;42.690;2.586;2023-06-01T02:51:49;7.15;;;4.72;;
30872;SDS011;17579;42.690;2.586;2023-06-01T02:54:14;6.35;;;4.55;;
30872;SDS011;17579;42.690;2.586;2023-06-01T02:56:40;6.28;;;4.55;;
30872;SDS011;17579;42.690;2.586;2023-06-01T02:59:08;7.72;;;5.20;;
30872;SDS011;17579;42.690;2.586;2023-06-01T03:01:34;7.47;;;5.53;;
30872;SDS011;17579;42.690;2.586;2023-06-01T03:04:01;4.97;;;4.50;;
30872;SDS011;17579;42.690;2.586;2023-06-01T03:06:30;8.13;;;4.47;;
30872;SDS011;17579;42.690;2.586;2023-06-01T03:08:59;6.03;;;4.43;;
30872;SDS011;17579;42.690;2.586;2023-06-01T03:11:41;6.78;;;5.03;;
30872;SDS011;17579;42.690;2.586;2023-06-01T03:14:07;7.85;;;4.82;;
30872;SDS011;17579;42.690;2.586;2023-06-01T03:16:46;7.30;;;4.10;;
30872;SDS011;17579;42.690;2.586;2023-06-01T03:19:11;6.38;;;4.78;;
30872;SDS011;17579;42.690;2.586;2023-06-01T03:21:37;6.03;;;4.53;;
30872;SDS011;17579;42.690;2.586;2023-06-01T03:24:13;4.90;;;4.30;;
30872;SDS011;17579;42.690;2.586;2023-06-01T03:26:39;8.80;;;4.38;;
30872;SDS011;17579;42.690;2.586;2023-06-01T03:29:07;8.15;;;4.13;;
30872;SDS011;17579;42.690;2.586;2023-06-01T03:31:33;7.50;;;4.88;;
30872;SDS011;17579;42.690;2.586;2023-06-01T03:34:01;8.20;;;4.70;;
30872;SDS011;17579;42.690;2.586;2023-06-01T03:36:35;6.30;;;4.25;;
30872;SDS011;17579;42.690;2.586;2023-06-01T03:41:47;6.35;;;4.15;;
30872;SDS011;17579;42.690;2.586;2023-06-01T03:44:23;7.78;;;4.90;;
30872;SDS011;17579;42.690;2.586;2023-06-01T03:46:51;4.50;;;3.88;;
30872;SDS011;17579;42.690;2.586;2023-06-01T03:49:21;5.47;;;4.00;;
30872;SDS011;17579;42.690;2.586;2023-06-01T03:51:49;5.25;;;4.13;;
30872;SDS011;17579;42.690;2.586;2023-06-01T03:54:24;9.35;;;4.20;;
30872;SDS011;17579;42.690;2.586;2023-06-01T03:56:50;5.78;;;4.18;;
30872;SDS011;17579;42.690;2.586;2023-06-01T03:59:18;6.13;;;4.07;;
30872;SDS011;17579;42.690;2.586;2023-06-01T04:01:46;5.00;;;4.50;;
30872;SDS011;17579;42.690;2.586;2023-06-01T04:04:15;5.45;;;4.25;;
30872;SDS011;17579;42.690;2.586;2023-06-01T04:06:51;5.57;;;4.10;;
30872;SDS011;17579;42.690;2.586;2023-06-01T04:09:17;7.95;;;4.43;;
30872;SDS011;17579;42.690;2.586;2023-06-01T04:11:49;7.68;;;4.43;;
30872;SDS011;17579;42.690;2.586;2023-06-01T04:14:26;4.63;;;3.90;;
30872;SDS011;17579;42.690;2.586;2023-06-01T04:16:51;4.85;;;4.45;;
30872;SDS011;17579;42.690;2.586;2023-06-01T04:19:26;6.38;;;4.03;;
30872;SDS011;17579;42.690;2.586;2023-06-01T04:21:52;5.88;;;4.78;;
30872;SDS011;17579;42.690;2.586;2023-06-01T04:24:21;5.97;;;4.55;;
30872;SDS011;17579;42.690;2.586;2023-06-01T04:27:05;7.15;;;4.43;;
30872;SDS011;17579;42.690;2.586;2023-06-01T04:29:33;9.77;;;5.20;;
30872;SDS011;17579;42.690;2.586;2023-06-01T04:32:09;8.70;;;5.63;;
30872;SDS011;17579;42.690;2.586;2023-06-01T04:34:45;7.63;;;4.85;;
30872;SDS011;17579;42.690;2.586;2023-06-01T04:37:15;6.40;;;4.65;;
30872;SDS011;17579;42.690;2.586;2023-06-01T04:39:45;8.68;;;5.10;;
30872;SDS011;17579;42.690;2.586;2023-06-01T04:42:34;6.40;;;4.07;;
30872;SDS011;17579;42.690;2.586;2023-06-01T04:45:20;7.63;;;4.80;;
30872;SDS011;17579;42.690;2.586;2023-06-01T04:48:05;6.18;;;4.57;;
30872;SDS011;17579;42.690;2.586;2023-06-01T04:50:40;7.63;;;5.22;;
30872;SDS011;17579;42.690;2.586;2023-06-01T04:53:06;7.20;;;4.57;;
30872;SDS011;17579;42.690;2.586;2023-06-01T04:55:32;5.50;;;4.85;;
30872;SDS011;17579;42.690;2.586;2023-06-01T04:58:06;5.28;;;4.45;;
30872;SDS011;17579;42.690;2.586;2023-06-01T05:03:26;7.10;;;4.88;;
30872;SDS011;17579;42.690;2.586;2023-06-01T05:05:54;12.35;;;4.90;;
30872;SDS011;17579;42.690;2.586;2023-06-01T05:08:23;7.78;;;4.97;;
30872;SDS011;17579;42.690;2.586;2023-06-01T05:11:09;6.18;;;4.57;;
30872;SDS011;17579;42.690;2.586;2023-06-01T05:13:37;7.05;;;4.50;;
30872;SDS011;17579;42.690;2.586;2023-06-01T05:16:08;5.50;;;5.00;;
30872;SDS011;17579;42.690;2.586;2023-06-01T05:18:36;5.55;;;4.75;;
30872;SDS011;17579;42.690;2.586;2023-06-01T05:21:05;6.22;;;4.72;;
30872;SDS011;17579;42.690;2.586;2023-06-01T05:26:33;5.72;;;4.90;;
30872;SDS011;17579;42.690;2.586;2023-06-01T05:29:09;5.57;;;4.72;;
30872;SDS011;17579;42.690;2.586;2023-06-01T05:31:37;4.75;;;4.20;;
30872;SDS011;17579;42.690;2.586;2023-06-01T05:34:15;6.03;;;4.68;;
30872;SDS011;17579;42.690;2.586;2023-06-01T05:36:48;6.05;;;4.72;;
30872;SDS011;17579;42.690;2.586;2023-06-01T05:39:24;8.50;;;4.65;;
30872;SDS011;17579;42.690;2.586;2023-06-01T05:41:54;4.97;;;4.47;;
30872;SDS011;17579;42.690;2.586;2023-06-01T05:44:24;5.82;;;5.00;;
30872;SDS011;17579;42.690;2.586;2023-06-01T05:46:59;6.43;;;4.45;;
30872;SDS011;17579;42.690;2.586;2023-06-01T05:49:27;4.72;;;4.22;;
30872;SDS011;17579;42.690;2.586;2023-06-01T05:52:14;6.50;;;4.32;;
30872;SDS011;17579;42.690;2.586;2023-06-01T05:55:22;5.38;;;4.88;;
30872;SDS011;17579;42.690;2.586;2023-06-01T05:57:31;6.40;;;4.55;;
30872;SDS011;17579;42.690;2.586;2023-06-01T06:00:04;5.50;;;4.13;;
30872;SDS011;17579;42.690;2.586;2023-06-01T06:02:31;7.90;;;4.47;;
30872;SDS011;17579;42.690;2.586;2023-06-01T06:05:07;4.78;;;4.28;;
30872;SDS011;17579;42.690;2.586;2023-06-01T06:07:36;6.80;;;4.25;;
30872;SDS011;17579;42.690;2.586;2023-06-01T06:10:02;5.18;;;4.50;;
30872;SDS011;17579;42.690;2.586;2023-06-01T06:12:48;8.13;;;4.80;;
30872;SDS011;17579;42.690;2.586;2023-06-01T06:15:18;6.65;;;5.03;;
30872;SDS011;17579;42.690;2.586;2023-06-01T06:17:54;8.13;;;5.72;;
30872;SDS011;17579;42.690;2.586;2023-06-01T06:20:20;9.38;;;6.75;;
30872;SDS011;17579;42.690;2.586;2023-06-01T06:22:52;10.43;;;7.35;;
30872;SDS011;17579;42.690;2.586;2023-06-01T06:25:20;11.80;;;7.93;;
30872;SDS011;17579;42.690;2.586;2023-06-01T06:27:51;10.77;;;7.53;;
30872;SDS011;17579;42.690;2.586;2023-06-01T06:30:24;10.48;;;7.25;;
30872;SDS011;17579;42.690;2.586;2023-06-01T06:32:50;8.30;;;7.50;;
30872;SDS011;17579;42.690;2.586;2023-06-01T06:35:23;9.70;;;7.90;;
30872;SDS011;17579;42.690;2.586;2023-06-01T06:37:54;8.13;;;7.18;;
30872;SDS011;17579;42.690;2.586;2023-06-01T06:40:20;10.25;;;7.32;;
30872;SDS011;17579;42.690;2.586;2023-06-01T06:42:46;9.45;;;7.20;;
30872;SDS011;17579;42.690;2.586;2023-06-01T06:45:15;7.93;;;7.10;;
30872;SDS011;17579;42.690;2.586;2023-06-01T06:47:41;8.90;;;7.53;;
30872;SDS011;17579;42.690;2.586;2023-06-01T06:50:20;8.15;;;6.63;;
30872;SDS011;17579;42.690;2.586;2023-06-01T06:53:09;10.48;;;6.72;;
30872;SDS011;17579;42.690;2.586;2023-06-01T06:55:38;9.90;;;7.68;;
30872;SDS011;17579;42.690;2.586;2023-06-01T06:58:20;8.95;;;7.25;;
30872;SDS011;17579;42.690;2.586;2023-06-01T07:00:54;11.45;;;6.93;;
30872;SDS011;17579;42.690;2.586;2023-06-01T07:03:20;6.65;;;5.93;;
30872;SDS011;17579;42.690;2.586;2023-06-01T07:05:46;8.13;;;7.13;;
30872;SDS011;17579;42.690;2.586;2023-06-01T07:08:19;7.93;;;6.15;;
30872;SDS011;17579;42.690;2.586;2023-06-01T07:10:47;6.97;;;6.28;;
30872;SDS011;17579;42.690;2.586;2023-06-01T07:13:35;6.97;;;6.18;;
30872;SDS011;17579;42.690;2.586;2023-06-01T07:16:07;7.40;;;6.10;;
30872;SDS011;17579;42.690;2.586;2023-06-01T07:18:38;8.80;;;6.30;;
30872;SDS011;17579;42.690;2.586;2023-06-01T07:21:09;7.20;;;5.78;;
30872;SDS011;17579;42.690;2.586;2023-06-01T07:23:34;7.60;;;6.00;;
30872;SDS011;17579;42.690;2.586;2023-06-01T07:26:03;9.15;;;6.50;;
30872;SDS011;17579;42.690;2.586;2023-06-01T07:28:34;6.03;;;5.43;;
30872;SDS011;17579;42.690;2.586;2023-06-01T07:31:03;6.75;;;5.97;;
30872;SDS011;17579;42.690;2.586;2023-06-01T07:36:23;6.75;;;5.47;;
30872;SDS011;17579;42.690;2.586;2023-06-01T07:39:10;6.90;;;5.93;;
30872;SDS011;17579;42.690;2.586;2023-06-01T07:41:36;5.90;;;5.30;;
30872;SDS011;17579;42.690;2.586;2023-06-01T07:44:04;6.70;;;5.90;;
30872;SDS011;17579;42.690;2.586;2023-06-01T07:46:51;6.55;;;5.72;;
30872;SDS011;17579;42.690;2.586;2023-06-01T07:49:19;7.63;;;6.15;;
30872;SDS011;17579;42.690;2.586;2023-06-01T07:51:51;7.18;;;5.93;;
30872;SDS011;17579;42.690;2.586;2023-06-01T07:54:24;6.43;;;5.15;;
30872;SDS011;17579;42.690;2.586;2023-06-01T07:56:53;7.03;;;6.25;;
30872;SDS011;17579;42.690;2.586;2023-06-01T07:59:19;6.32;;;5.40;;
30872;SDS011;17579;42.690;2.586;2023-06-01T08:01:49;7.05;;;5.80;;
30872;SDS011;17579;42.690;2.586;2023-06-01T08:04:20;6.72;;;5.30;;
30872;SDS011;17579;42.690;2.586;2023-06-01T08:06:46;7.00;;;5.13;;
30872;SDS011;17579;42.690;2.586;2023-06-01T08:09:19;7.40;;;5.65;;
30872;SDS011;17579;42.690;2.586;2023-06-01T08:11:46;7.68;;;5.88;;
30872;SDS011;17579;42.690;2.586;2023-06-01T08:14:13;7.20;;;5.30;;
30872;SDS011;17579;42.690;2.586;2023-06-01T08:16:39;7.40;;;6.25;;
30872;SDS011;17579;42.690;2.586;2023-06-01T08:22:12;7.13;;;6.43;;
30872;SDS011;17579;42.690;2.586;2023-06-01T08:22:23;7.20;;;6.03;;
30872;SDS011;17579;42.690;2.586;2023-06-01T08:24:53;6.93;;;6.22;;
30872;SDS011;17579;42.690;2.586;2023-06-01T08:27:20;7.47;;;6.60;;
30872;SDS011;17579;42.690;2.586;2023-06-01T08:29:50;7.50;;;6.78;;
30872;SDS011;17579;42.690;2.586;2023-06-01T08:32:17;7.18;;;6.45;;
30872;SDS011;17579;42.690;2.586;2023-06-01T08:37:35;7.55;;;6.20;;
30872;SDS011;17579;42.690;2.586;2023-06-01T08:40:01;7.78;;;7.07;;
30872;SDS011;17579;42.690;2.586;2023-06-01T08:45:27;7.93;;;7.13;;
30872;SDS011;17579;42.690;2.586;2023-06-01T08:47:55;8.68;;;7.80;;
30872;SDS011;17579;42.690;2.586;2023-06-01T08:50:26;7.55;;;6.22;;
30872;SDS011;17579;42.690;2.586;2023-06-01T08:52:57;7.53;;;6.82;;
30872;SDS011;17579;42.690;2.586;2023-06-01T08:55:31;6.90;;;6.30;;
30872;SDS011;17579;42.690;2.586;2023-06-01T08:57:57;9.77;;;6.50;;
30872;SDS011;17579;42.690;2.586;2023-06-01T09:00:39;7.00;;;6.30;;
30872;SDS011;17579;42.690;2.586;2023-06-01T09:03:08;5.47;;;4.78;;
30872;SDS011;17579;42.690;2.586;2023-06-01T09:05:39;6.40;;;5.70;;
30872;SDS011;17579;42.690;2.586;2023-06-01T09:08:05;9.05;;;5.82;;
30872;SDS011;17579;42.690;2.586;2023-06-01T09:10:31;6.20;;;5.65;;
30872;SDS011;17579;42.690;2.586;2023-06-01T09:13:09;6.00;;;5.40;;
30872;SDS011;17579;42.690;2.586;2023-06-01T09:15:34;6.45;;;5.45;;
30872;SDS011;17579;42.690;2.586;2023-06-01T09:18:15;6.55;;;5.93;;
30872;SDS011;17579;42.690;2.586;2023-06-01T09:20:49;6.55;;;5.68;;
30872;SDS011;17579;42.690;2.586;2023-06-01T09:23:25;6.32;;;5.70;;
30872;SDS011;17579;42.690;2.586;2023-06-01T09:29:00;8.30;;;6.00;;
30872;SDS011;17579;42.690;2.586;2023-06-01T09:31:35;6.53;;;5.93;;
30872;SDS011;17579;42.690;2.586;2023-06-01T09:34:01;6.85;;;6.15;;
30872;SDS011;17579;42.690;2.586;2023-06-01T09:36:41;8.23;;;6.53;;
30872;SDS011;17579;42.690;2.586;2023-06-01T09:41:58;7.30;;;6.45;;
30872;SDS011;17579;42.690;2.586;2023-06-01T09:44:38;7.00;;;6.40;;
30872;SDS011;17579;42.690;2.586;2023-06-01T09:47:15;7.85;;;6.07;;
30872;SDS011;17579;42.690;2.586;2023-06-01T09:50:03;7.00;;;6.40;;
30872;SDS011;17579;42.690;2.586;2023-06-01T09:52:29;7.30;;;5.90;;
30872;SDS011;17579;42.690;2.586;2023-06-01T09:55:04;6.47;;;5.78;;
30872;SDS011;17579;42.690;2.586;2023-06-01T09:57:36;8.32;;;6.38;;
30872;SDS011;17579;42.690;2.586;2023-06-01T10:00:02;8.93;;;6.55;;
30872;SDS011;17579;42.690;2.586;2023-06-01T10:02:30;6.97;;;6.28;;
30872;SDS011;17579;42.690;2.586;2023-06-01T10:04:58;6.85;;;6.25;;
30872;SDS011;17579;42.690;2.586;2023-06-01T10:07:39;6.88;;;6.18;;
30872;SDS011;17579;42.690;2.586;2023-06-01T10:10:17;7.75;;;6.88;;
30872;SDS011;17579;42.690;2.586;2023-06-01T10:12:47;6.18;;;5.57;;
30872;SDS011;17579;42.690;2.586;2023-06-01T10:15:18;7.68;;;5.97;;
30872;SDS011;17579;42.690;2.586;2023-06-01T10:17:48;8.80;;;6.00;;
30872;SDS011;17579;42.690;2.586;2023-06-01T10:20:19;5.72;;;5.22;;
30872;SDS011;17579;42.690;2.586;2023-06-01T10:22:45;6.30;;;5.50;;
30872;SDS011;17579;42.690;2.586;2023-06-01T10:25:11;7.18;;;5.72;;
30872;SDS011;17579;42.690;2.586;2023-06-01T10:28:23;5.43;;;4.93;;
30872;SDS011;17579;42.690;2.586;2023-06-01T10:36:19;6.40;;;5.50;;
30872;SDS011;17579;42.690;2.586;2023-06-01T10:38:48;7.57;;;5.28;;
30872;SDS011;17579;42.690;2.586;2023-06-01T10:44:02;5.90;;;5.28;;
30872;SDS011;17579;42.690;2.586;2023-06-01T10:46:44;6.65;;;5.35;;
30872;SDS011;17579;42.690;2.586;2023-06-01T10:49:15;5.80;;;5.00;;
30872;SDS011;17579;42.690;2.586;2023-06-01T10:51:44;6.30;;;5.35;;
30872;SDS011;17579;42.690;2.586;2023-06-01T10:54:24;6.45;;;5.38;;
30872;SDS011;17579;42.690;2.586;2023-06-01T10:59:30;5.82;;;5.22;;
30872;SDS011;17579;42.690;2.586;2023-06-01T11:02:02;5.97;;;4.80;;
30872;SDS011;17579;42.690;2.586;2023-06-01T11:04:36;6.80;;;5.70;;
30872;SDS011;17579;42.690;2.586;2023-06-01T11:07:43;7.40;;;6.70;;
30872;SDS011;17579;42.690;2.586;2023-06-01T11:10:11;9.90;;;7.20;;
30872;SDS011;17579;42.690;2.586;2023-06-01T11:15:39;7.97;;;6.63;;
30872;SDS011;17579;42.690;2.586;2023-06-01T11:21:00;7.78;;;6.97;;
30872;SDS011;17579;42.690;2.586;2023-06-01T11:23:31;7.97;;;7.15;;
30872;SDS011;17579;42.690;2.586;2023-06-01T11:26:03;7.45;;;6.30;;
30872;SDS011;17579;42.690;2.586;2023-06-01T11:28:34;9.43;;;6.60;;
30872;SDS011;17579;42.690;2.586;2023-06-01T11:31:01;9.07;;;6.60;;
30872;SDS011;17579;42.690;2.586;2023-06-01T11:33:39;7.13;;;6.40;;
30872;SDS011;17579;42.690;2.586;2023-06-01T11:36:19;7.47;;;6.35;;
30872;SDS011;17579;42.690;2.586;2023-06-01T11:38:57;6.93;;;6.25;;
30872;SDS011;17579;42.690;2.586;2023-06-01T11:41:33;6.93;;;6.10;;
30872;SDS011;17579;42.690;2.586;2023-06-01T11:44:09;7.57;;;6.88;;
30872;SDS011;17579;42.690;2.586;2023-06-01T11:46:35;8.07;;;6.15;;
30872;SDS011;17579;42.690;2.586;2023-06-01T11:49:10;8.10;;;6.20;;
30872;SDS011;17579;42.690;2.586;2023-06-01T11:51:41;7.00;;;6.38;;
30872;SDS011;17579;42.690;2.586;2023-06-01T11:56:49;6.88;;;6.25;;
30872;SDS011;17579;42.690;2.586;2023-06-01T11:59:22;7.25;;;6.47;;
30872;SDS011;17579;42.690;2.586;2023-06-01T12:01:49;7.85;;;7.10;;
30872;SDS011;17579;42.690;2.586;2023-06-01T12:04:24;10.50;;;6.97;;
30872;SDS011;17579;42.690;2.586;2023-06-01T12:07:02;7.28;;;6.53;;
30872;SDS011;17579;42.690;2.586;2023-06-01T12:09:39;7.18;;;6.45;;
30872;SDS011;17579;42.690;2.586;2023-06-01T12:12:21;9.80;;;7.03;;
30872;SDS011;17579;42.690;2.586;2023-06-01T12:14:57;6.78;;;6.10;;
30872;SDS011;17579;42.690;2.586;2023-06-01T12:20:06;7.60;;;6.65;;
30872;SDS011;17579;42.690;2.586;2023-06-01T12:22:33;8.80;;;7.05;;
30872;SDS011;17579;42.690;2.586;2023-06-01T12:25:05;8.32;;;7.53;;
30872;SDS011;17579;42.690;2.586;2023-06-01T12:28:05;8.65;;;7.85;;
30872;SDS011;17579;42.690;2.586;2023-06-01T12:30:43;8.73;;;7.70;;
30872;SDS011;17579;42.690;2.586;2023-06-01T12:38:08;8.98;;;7.45;;
30872;SDS011;17579;42.690;2.586;2023-06-01T12:40:35;8.60;;;7.03;;
30872;SDS011;17579;42.690;2.586;2023-06-01T12:43:05;9.52;;;7.90;;
30872;SDS011;17579;42.690;2.586;2023-06-01T12:45:44;12.60;;;7.80;;
30872;SDS011;17579;42.690;2.586;2023-06-01T12:48:29;9.48;;;8.10;;
30872;SDS011;17579;42.690;2.586;2023-06-01T12:51:05;9.65;;;7.50;;
30872;SDS011;17579;42.690;2.586;2023-06-01T12:56:37;11.82;;;7.93;;
30872;SDS011;17579;42.690;2.586;2023-06-01T12:59:42;11.45;;;7.97;;
30872;SDS011;17579;42.690;2.586;2023-06-01T13:02:10;8.98;;;7.55;;
30872;SDS011;17579;42.690;2.586;2023-06-01T13:04:45;8.43;;;7.53;;
30872;SDS011;17579;42.690;2.586;2023-06-01T13:07:36;6.88;;;6.18;;
30872;SDS011;17579;42.690;2.586;2023-06-01T13:10:09;6.05;;;5.45;;
30872;SDS011;17579;42.690;2.586;2023-06-01T13:12:43;7.32;;;5.35;;
30872;SDS011;17579;42.690;2.586;2023-06-01T13:15:09;5.80;;;4.53;;
30872;SDS011;17579;42.690;2.586;2023-06-01T13:17:37;4.43;;;4.00;;
30872;SDS011;17579;42.690;2.586;2023-06-01T13:20:06;4.28;;;3.90;;
30872;SDS011;17579;42.690;2.586;2023-06-01T13:22:42;5.22;;;4.18;;
30872;SDS011;17579;42.690;2.586;2023-06-01T13:25:11;5.20;;;4.50;;
30872;SDS011;17579;42.690;2.586;2023-06-01T13:27:37;5.95;;;4.72;;
30872;SDS011;17579;42.690;2.586;2023-06-01T13:30:12;4.53;;;4.13;;
30872;SDS011;17579;42.690;2.586;2023-06-01T13:32:41;6.45;;;5.63;;
30872;SDS011;17579;42.690;2.586;2023-06-01T13:35:06;6.07;;;4.72;;
30872;SDS011;17579;42.690;2.586;2023-06-01T13:37:40;5.82;;;5.20;;
30872;SDS011;17579;42.690;2.586;2023-06-01T13:40:31;5.90;;;5.40;;
30872;SDS011;17579;42.690;2.586;2023-06-01T13:43:00;5.40;;;4.85;;
30872;SDS011;17579;42.690;2.586;2023-06-01T13:45:26;6.15;;;5.55;;
30872;SDS011;17579;42.690;2.586;2023-06-01T13:48:08;5.45;;;4.95;;
30872;SDS011;17579;42.690;2.586;2023-06-01T13:50:34;5.82;;;4.88;;
30872;SDS011;17579;42.690;2.586;2023-06-01T13:53:01;5.40;;;4.43;;
30872;SDS011;17579;42.690;2.586;2023-06-01T13:55:30;5.13;;;4.60;;
30872;SDS011;17579;42.690;2.586;2023-06-01T13:58:05;5.38;;;4.88;;
30872;SDS011;17579;42.690;2.586;2023-06-01T14:00:44;6.13;;;5.32;;
30872;SDS011;17579;42.690;2.586;2023-06-01T14:03:18;5.82;;;5.13;;
30872;SDS011;17579;42.690;2.586;2023-06-01T14:06:07;5.88;;;5.20;;
30872;SDS011;17579;42.690;2.586;2023-06-01T14:08:43;5.65;;;4.93;;
30872;SDS011;17579;42.690;2.586;2023-06-01T14:11:20;5.72;;;5.22;;
30872;SDS011;17579;42.690;2.586;2023-06-01T14:13:51;6.10;;;5.13;;
30872;SDS011;17579;42.690;2.586;2023-06-01T14:16:19;5.72;;;5.10;;
30872;SDS011;17579;42.690;2.586;2023-06-01T14:18:48;5.90;;;5.38;;
30872;SDS011;17579;42.690;2.586;2023-06-01T14:21:27;5.10;;;4.60;;
30872;SDS011;17579;42.690;2.586;2023-06-01T14:23:57;6.90;;;6.00;;
30872;SDS011;17579;42.690;2.586;2023-06-01T14:26:25;7.55;;;5.45;;
30872;SDS011;17579;42.690;2.586;2023-06-01T14:28:57;6.30;;;5.72;;
30872;SDS011;17579;42.690;2.586;2023-06-01T14:31:34;6.40;;;5.80;;
30872;SDS011;17579;42.690;2.586;2023-06-01T14:34:00;8.50;;;5.95;;
30872;SDS011;17579;42.690;2.586;2023-06-01T14:36:40;6.38;;;5.03;;
30872;SDS011;17579;42.690;2.586;2023-06-01T14:39:10;6.70;;;5.63;;
30872;SDS011;17579;42.690;2.586;2023-06-01T14:41:36;6.05;;;5.45;;
30872;SDS011;17579;42.690;2.586;2023-06-01T14:44:23;6.95;;;6.35;;
30872;SDS011;17579;42.690;2.586;2023-06-01T14:46:57;6.68;;;6.00;;
30872;SDS011;17579;42.690;2.586;2023-06-01T14:49:39;6.72;;;6.13;;
30872;SDS011;17579;42.690;2.586;2023-06-01T14:52:08;6.55;;;5.70;;
30872;SDS011;17579;42.690;2.586;2023-06-01T14:54:42;6.68;;;5.93;;
30872;SDS011;17579;42.690;2.586;2023-06-01T14:57:16;6.03;;;5.43;;
30872;SDS011;17579;42.690;2.586;2023-06-01T15:00:13;5.80;;;5.28;;
30872;SDS011;17579;42.690;2.586;2023-06-01T15:02:39;6.10;;;5.60;;
30872;SDS011;17579;42.690;2.586;2023-06-01T15:05:07;5.60;;;5.10;;
30872;SDS011;17579;42.690;2.586;2023-06-01T15:07:39;5.88;;;5.30;;
30872;SDS011;17579;42.690;2.586;2023-06-01T15:10:23;7.65;;;6.85;;
30872;SDS011;17579;42.690;2.586;2023-06-01T15:12:50;6.22;;;5.63;;
30872;SDS011;17579;42.690;2.586;2023-06-01T15:15:18;6.40;;;5.88;;
30872;SDS011;17579;42.690;2.586;2023-06-01T15:17:44;7.95;;;6.03;;
30872;SDS011;17579;42.690;2.586;2023-06-01T15:23:23;6.78;;;6.05;;
30872;SDS011;17579;42.690;2.586;2023-06-01T15:25:51;5.50;;;5.00;;
30872;SDS011;17579;42.690;2.586;2023-06-01T15:28:20;6.32;;;5.25;;
30872;SDS011;17579;42.690;2.586;2023-06-01T15:31:00;8.48;;;7.38;;
30872;SDS011;17579;42.690;2.586;2023-06-01T15:33:57;7.00;;;6.30;;
30872;SDS011;17579;42.690;2.586;2023-06-01T15:36:25;6.55;;;5.38;;
30872;SDS011;17579;42.690;2.586;2023-06-01T15:38:51;6.88;;;5.70;;
30872;SDS011;17579;42.690;2.586;2023-06-01T15:41:17;6.28;;;5.72;;
30872;SDS011;17579;42.690;2.586;2023-06-01T15:43:56;6.18;;;5.38;;
30872;SDS011;17579;42.690;2.586;2023-06-01T15:46:24;5.97;;;5.35;;
30872;SDS011;17579;42.690;2.586;2023-06-01T15:48:55;6.10;;;5.43;;
30872;SDS011;17579;42.690;2.586;2023-06-01T15:51:21;6.43;;;4.70;;
30872;SDS011;17579;42.690;2.586;2023-06-01T15:54:04;5.40;;;4.90;;
30872;SDS011;17579;42.690;2.586;2023-06-01T15:56:33;6.03;;;5.43;;
30872;SDS011;17579;42.690;2.586;2023-06-01T15:59:04;5.97;;;5.38;;
30872;SDS011;17579;42.690;2.586;2023-06-01T16:01:39;5.40;;;4.90;;
30872;SDS011;17579;42.690;2.586;2023-06-01T16:04:04;6.18;;;5.57;;
30872;SDS011;17579;42.690;2.586;2023-06-01T16:06:35;6.10;;;5.53;;
30872;SDS011;17579;42.690;2.586;2023-06-01T16:09:09;5.60;;;5.10;;
30872;SDS011;17579;42.690;2.586;2023-06-01T16:11:44;5.90;;;5.30;;
30872;SDS011;17579;42.690;2.586;2023-06-01T16:14:14;5.47;;;5.07;;
30872;SDS011;17579;42.690;2.586;2023-06-01T16:16:55;6.00;;;5.50;;
30872;SDS011;17579;42.690;2.586;2023-06-01T16:19:47;5.45;;;4.97;;
30872;SDS011;17579;42.690;2.586;2023-06-01T16:22:32;6.38;;;5.78;;
30872;SDS011;17579;42.690;2.586;2023-06-01T16:25:03;6.40;;;5.85;;
30872;SDS011;17579;42.690;2.586;2023-06-01T16:28:04;6.22;;;5.63;;
30872;SDS011;17579;42.690;2.586;2023-06-01T16:30:29;5.82;;;5.22;;
30872;SDS011;17579;42.690;2.586;2023-06-01T16:32:58;6.85;;;5.95;;
30872;SDS011;17579;42.690;2.586;2023-06-01T16:35:36;6.30;;;5.30;;